CheckWX is a tool to help pilots better visualize weather data.  It is not intended as a substitute for an official pre-flight weather briefing.

13:55:03 UTC

KAKR METAR
Akron Fulton International Airport
Akron, Ohio, USA
Current

50 mins ago

KAKR 261305Z AUTO 32011KT 10SM BKN007 OVC012 13/11 A2938 RMK AO2 T01280111
Observed
Apr-26 @ 13:05 UTC
Wind
  • 320° at 11 KTS
Visibility
10 SM
Flight Rules
IFR
Cloud Levels
  • Broken at 700' AGL
  • Overcast at 1,200' AGL
Temperature
13°C / 55°F
Dewpoint
11°C / 52°F
Humidity
88%
Altimeter
29.38" Hg
Pressure
994.92 hPa
Previous

1 hour ago

KAKR 261254Z AUTO 31014G18KT 10SM OVC010 13/12 A2938 RMK AO2 RAE27 CIG 007V012 SLP947 P0000 T01330117
Observed
Apr-26 @ 12:54 UTC
Wind
  • 310° at 14 KTS
  • Gusting to 18 KTS
Visibility
10 SM
Flight Rules
MVFR
Cloud Levels
  • Overcast at 1,000' AGL
Temperature
13°C / 55°F
Dewpoint
12°C / 54°F
Humidity
94%
Altimeter
29.38" Hg
Pressure
994.92 hPa
Current Rain
0.01"
Previous

2 hours ago

KAKR 261220Z AUTO 29007KT 6SM -RA BR FEW006 BKN011 OVC049 14/13 A2938 RMK AO2 P0000 T01440128
Observed
Apr-26 @ 12:20 UTC
Wind
  • 290° at 7 KTS
Visibility
6 SM
Flight Rules
MVFR
Conditions
Light Rain, Mist
Cloud Levels
  • Few at 600' AGL
  • Broken at 1,100' AGL
  • Overcast at 4,900' AGL
Temperature
14°C / 57°F
Dewpoint
13°C / 55°F
Humidity
94%
Altimeter
29.38" Hg
Pressure
994.92 hPa
Current Rain
0.01"